Time;durP1;ratioP1;P1;durP2;ratioP2;P2;SDS_P1;SDS_P2;PMS_P1;PMS_P2;Temp;Humidity;BMP_temperature;BMP_pressure;BME280_temperature;BME280_humidity;BME280_pressure;Samples;Min_cycle;Max_cycle;Signal;HPM_P1;HPM_P2
2021/04/23 00:01:49;;;;;;;6.47;4.83;;;11.90;47.00;;;;;;5068090;28;20293;-83
2021/04/23 00:04:15;;;;;;;6.90;4.40;;;12.00;46.70;;;;;;5068284;28;20262;-84
2021/04/23 00:06:55;;;;;;;9.37;5.37;;;12.10;46.50;;;;;;5068844;28;20633;-84
2021/04/23 00:09:30;;;;;;;8.70;5.43;;;12.10;45.90;;;;;;5068733;28;20205;-83
2021/04/23 00:12:00;;;;;;;9.23;5.90;;;12.10;45.80;;;;;;5070955;28;20245;-83
2021/04/23 00:14:33;;;;;;;8.03;5.83;;;12.10;45.80;;;;;;5056720;28;20185;-83
2021/04/23 00:17:00;;;;;;;7.77;5.30;;;12.00;46.20;;;;;;5048346;28;20179;-83
2021/04/23 00:19:27;;;;;;;8.40;5.37;;;12.00;46.20;;;;;;5047475;28;20218;-84
2021/04/23 00:21:55;;;;;;;10.00;5.87;;;11.80;46.50;;;;;;5053266;28;20238;-82
2021/04/23 00:24:21;;;;;;;8.07;4.80;;;11.80;47.00;;;;;;5074734;28;20177;-83
2021/04/23 00:26:47;;;;;;;9.53;5.50;;;11.90;47.40;;;;;;5065818;28;20219;-83
2021/04/23 00:29:13;;;;;;;7.93;5.43;;;11.70;47.50;;;;;;5069597;28;20188;-83
2021/04/23 00:31:39;;;;;;;5.93;4.97;;;11.40;48.30;;;;;;5067404;28;20605;-83
2021/04/23 00:34:05;;;;;;;6.80;4.47;;;11.30;48.20;;;;;;5066469;28;20318;-84
2021/04/23 00:36:31;;;;;;;8.90;6.13;;;11.30;48.70;;;;;;5068263;28;20193;-83
2021/04/23 00:38:58;;;;;;;7.03;4.47;;;11.30;48.00;;;;;;5066478;28;20216;-83
2021/04/23 00:41:30;;;;;;;9.90;5.50;;;11.30;48.30;;;;;;5067052;28;20185;-83
2021/04/23 00:43:57;;;;;;;6.83;5.13;;;11.30;48.60;;;;;;5066434;28;20579;-83
2021/04/23 00:46:29;;;;;;;5.43;4.37;;;11.30;48.80;;;;;;5068013;28;20206;-83
2021/04/23 00:48:56;;;;;;;8.67;5.03;;;11.30;49.10;;;;;;5068103;28;20208;-84
2021/04/23 00:51:29;;;;;;;7.40;5.13;;;11.20;48.70;;;;;;5060877;28;20195;-83
2021/04/23 00:53:55;;;;;;;8.07;5.20;;;11.00;49.00;;;;;;5063355;28;20738;-84
2021/04/23 00:56:28;;;;;;;11.23;5.57;;;10.70;49.60;;;;;;5054574;28;20219;-85
2021/04/23 00:58:54;;;;;;;8.47;5.23;;;10.40;50.00;;;;;;5043387;28;20170;-83
2021/04/23 01:01:28;;;;;;;7.67;5.33;;;10.40;50.50;;;;;;5041392;28;20215;-83
2021/04/23 01:03:55;;;;;;;10.03;5.03;;;10.10;51.20;;;;;;5042730;28;20238;-84
2021/04/23 01:06:24;;;;;;;10.97;5.40;;;10.00;51.20;;;;;;5042540;28;20288;-83
2021/04/23 01:08:51;;;;;;;9.30;4.90;;;10.00;51.80;;;;;;5042892;28;20185;-83
2021/04/23 01:11:18;;;;;;;7.53;4.80;;;9.80;51.80;;;;;;5041704;28;20216;-84
2021/04/23 01:13:45;;;;;;;10.73;6.47;;;10.00;52.20;;;;;;5042907;28;20188;-84
2021/04/23 01:16:13;;;;;;;10.33;5.20;;;10.00;51.70;;;;;;5042900;28;20207;-85
2021/04/23 01:18:40;;;;;;;9.63;5.40;;;9.90;52.40;;;;;;5043076;28;20184;-83
2021/04/23 01:21:11;;;;;;;12.70;4.83;;;9.80;52.40;;;;;;5043319;28;20249;-84
2021/04/23 01:23:39;;;;;;;8.87;4.90;;;9.80;52.90;;;;;;5042515;28;20199;-83
2021/04/23 01:26:07;;;;;;;7.87;5.07;;;9.90;53.30;;;;;;5054366;28;20232;-84
2021/04/23 01:28:34;;;;;;;6.70;5.10;;;10.00;52.70;;;;;;5057295;28;20208;-83
2021/04/23 01:31:02;;;;;;;10.73;4.53;;;10.10;52.60;;;;;;5042020;28;20232;-84
2021/04/23 01:33:29;;;;;;;8.87;4.97;;;10.10;52.70;;;;;;5041443;28;20252;-83
2021/04/23 01:35:54;;;;;;;8.17;5.60;;;10.10;52.70;;;;;;5041573;28;20286;-84
2021/04/23 01:38:21;;;;;;;6.77;5.40;;;10.10;51.90;;;;;;5042197;28;20185;-84
2021/04/23 01:40:47;;;;;;;7.87;5.17;;;10.20;52.40;;;;;;5041849;28;20196;-82
2021/04/23 01:43:14;;;;;;;8.73;4.97;;;10.00;52.60;;;;;;5041229;28;20193;-84
2021/04/23 01:45:41;;;;;;;7.33;4.60;;;10.00;52.60;;;;;;5049842;28;20208;-82
2021/04/23 01:48:07;;;;;;;7.23;5.07;;;10.00;51.80;;;;;;5060621;28;20646;-84
2021/04/23 01:50:32;;;;;;;9.77;5.00;;;10.00;52.30;;;;;;5061183;28;20239;-83
2021/04/23 01:52:58;;;;;;;8.50;5.10;;;9.90;51.80;;;;;;5060492;28;20219;-84
2021/04/23 01:55:25;;;;;;;11.17;5.07;;;9.70;52.30;;;;;;5061526;28;20227;-84
2021/04/23 01:57:51;;;;;;;9.13;5.33;;;9.80;52.70;;;;;;5060934;28;20563;-84
2021/04/23 02:00:27;;;;;;;11.23;5.20;;;9.80;52.50;;;;;;5060926;28;20176;-84
2021/04/23 02:02:54;;;;;;;11.07;4.53;;;9.90;52.20;;;;;;5059284;28;20191;-84
2021/04/23 02:05:21;;;;;;;11.30;5.13;;;9.90;51.80;;;;;;5060485;28;20246;-83
2021/04/23 02:07:47;;;;;;;7.53;5.07;;;9.80;52.10;;;;;;5041136;28;20270;-84
2021/04/23 02:10:20;;;;;;;11.30;6.43;;;9.70;52.60;;;;;;5040222;28;20209;-83
2021/04/23 02:12:46;;;;;;;6.30;4.83;;;9.70;51.90;;;;;;5039740;28;20189;-83
2021/04/23 02:15:14;;;;;;;7.07;5.10;;;9.60;51.80;;;;;;5040422;28;20200;-84
2021/04/23 02:17:41;;;;;;;8.10;5.20;;;9.60;51.60;;;;;;5041095;28;20644;-84
2021/04/23 02:20:11;;;;;;;8.80;5.10;;;9.60;51.70;;;;;;5040678;28;20196;-84
2021/04/23 02:22:38;;;;;;;9.10;5.20;;;9.60;52.00;;;;;;5039610;28;20210;-83
2021/04/23 02:25:06;;;;;;;6.63;4.77;;;9.60;51.60;;;;;;5055437;28;20247;-84
2021/04/23 02:27:32;;;;;;;6.53;5.13;;;9.60;51.70;;;;;;5059359;28;20192;-84
2021/04/23 02:29:57;;;;;;;9.10;5.20;;;9.40;51.30;;;;;;5062093;28;20682;-84
2021/04/23 02:32:23;;;;;;;7.10;4.67;;;9.30;51.90;;;;;;5062041;28;20240;-84
2021/04/23 02:34:49;;;;;;;5.73;4.63;;;9.20;52.30;;;;;;5060881;28;20283;-83
2021/04/23 02:37:15;;;;;;;8.90;4.83;;;9.00;52.80;;;;;;5051553;28;20185;-83
2021/04/23 02:39:40;;;;;;;8.67;4.70;;;9.10;53.10;;;;;;5041917;28;20200;-85
2021/04/23 02:42:06;;;;;;;11.17;5.33;;;9.20;52.60;;;;;;5041684;28;20232;-84
2021/04/23 02:44:32;;;;;;;8.67;4.93;;;9.30;51.80;;;;;;5041375;28;20316;-85
2021/04/23 02:47:00;;;;;;;6.70;4.83;;;9.30;51.80;;;;;;5040789;28;20703;-85
2021/04/23 02:49:25;;;;;;;6.90;5.03;;;9.40;53.10;;;;;;5040906;28;20205;-84
2021/04/23 02:51:51;;;;;;;7.40;4.90;;;9.60;51.20;;;;;;5041768;28;20193;-83
2021/04/23 02:54:20;;;;;;;7.77;5.10;;;9.50;51.20;;;;;;5040975;28;20207;-84
2021/04/23 02:56:46;;;;;;;8.00;5.00;;;9.50;51.20;;;;;;5040843;28;20227;-85
2021/04/23 02:59:12;;;;;;;7.17;4.70;;;9.40;51.80;;;;;;5040743;28;20586;-85
2021/04/23 03:01:44;;;;;;;6.60;4.83;;;9.50;51.70;;;;;;5039631;28;20211;-85
2021/04/23 03:04:10;;;;;;;7.27;5.37;;;9.40;51.50;;;;;;5038836;28;20185;-86
2021/04/23 03:06:36;;;;;;;6.57;4.53;;;9.40;51.80;;;;;;5039569;28;20201;-85
2021/04/23 03:09:07;;;;;;;9.30;5.20;;;9.20;51.40;;;;;;5050405;28;20176;-84
2021/04/23 03:11:34;;;;;;;6.83;5.00;;;9.10;52.50;;;;;;5058998;28;20168;-85
2021/04/23 03:14:02;;;;;;;9.17;5.00;;;9.20;52.20;;;;;;5059557;28;20183;-84
2021/04/23 03:16:29;;;;;;;8.37;5.17;;;9.00;52.70;;;;;;5059436;28;20204;-85
2021/04/23 03:18:55;;;;;;;8.00;4.70;;;8.80;52.90;;;;;;5063496;28;20168;-84
2021/04/23 03:21:23;;;;;;;6.83;4.67;;;8.60;53.90;;;;;;5063062;28;20199;-83
2021/04/23 03:23:49;;;;;;;9.70;5.10;;;8.50;54.20;;;;;;5061727;28;20218;-83
2021/04/23 03:26:17;;;;;;;7.60;4.77;;;8.40;53.70;;;;;;5060740;28;20243;-83
2021/04/23 03:28:44;;;;;;;7.90;5.37;;;8.20;54.40;;;;;;5063270;28;20271;-84
2021/04/23 03:31:11;;;;;;;8.97;5.10;;;8.20;54.20;;;;;;5063967;28;20211;-84
2021/04/23 03:33:38;;;;;;;7.90;4.83;;;8.10;54.40;;;;;;5061686;28;20191;-83
2021/04/23 03:36:05;;;;;;;9.53;5.03;;;8.00;55.30;;;;;;5063681;28;20200;-83
2021/04/23 03:38:34;;;;;;;6.80;5.10;;;8.00;55.10;;;;;;5063577;28;20180;-84
2021/04/23 03:41:02;;;;;;;9.73;5.07;;;7.90;55.40;;;;;;5062323;28;20239;-84
2021/04/23 03:43:28;;;;;;;7.50;4.90;;;8.00;55.80;;;;;;5063034;28;20693;-84
2021/04/23 03:45:54;;;;;;;6.23;4.33;;;8.10;54.90;;;;;;5066059;28;20223;-84
2021/04/23 03:48:20;;;;;;;8.37;4.50;;;8.10;54.90;;;;;;5066554;28;20287;-83
2021/04/23 03:50:47;;;;;;;6.93;4.40;;;8.00;54.60;;;;;;5067046;28;20216;-84
2021/04/23 03:53:15;;;;;;;4.97;4.47;;;8.00;55.30;;;;;;5068471;28;20250;-83
2021/04/23 03:55:46;;;;;;;6.20;4.03;;;7.90;55.10;;;;;;5067739;28;20288;-84
2021/04/23 03:58:13;;;;;;;6.20;5.10;;;7.80;55.50;;;;;;5062195;28;20165;-83
2021/04/23 04:00:47;;;;;;;8.20;5.40;;;7.70;55.50;;;;;;5074803;28;20196;-84
2021/04/23 04:03:14;;;;;;;9.00;5.27;;;7.70;55.50;;;;;;5075587;28;20164;-83
2021/04/23 04:05:40;;;;;;;7.70;5.23;;;7.80;55.70;;;;;;5067702;28;20196;-85
2021/04/23 04:08:06;;;;;;;6.93;5.47;;;7.80;55.00;;;;;;5064231;28;20219;-85
2021/04/23 04:10:32;;;;;;;7.27;6.13;;;7.90;54.90;;;;;;5065733;28;20212;-85
2021/04/23 04:12:58;;;;;;;9.07;5.17;;;8.00;54.60;;;;;;5048916;28;20176;-86
2021/04/23 04:15:25;;;;;;;9.10;4.93;;;8.20;54.90;;;;;;5058111;28;20197;-85
2021/04/23 04:17:51;;;;;;;10.03;5.97;;;8.20;54.10;;;;;;5048187;28;20185;-85
2021/04/23 04:20:18;;;;;;;6.07;4.80;;;8.10;54.60;;;;;;5048949;28;20185;-85
2021/04/23 04:22:44;;;;;;;6.50;5.27;;;8.00;54.90;;;;;;5049466;28;20188;-85
2021/04/23 04:25:18;;;;;;;8.97;4.53;;;8.10;55.20;;;;;;5049845;28;20216;-85
2021/04/23 04:27:43;;;;;;;8.23;4.90;;;8.00;54.90;;;;;;5069275;28;20172;-85
2021/04/23 04:30:10;;;;;;;8.10;4.63;;;8.00;55.30;;;;;;5066484;28;20223;-84
2021/04/23 04:32:36;;;;;;;6.83;4.73;;;8.10;55.50;;;;;;5068128;28;20176;-85
2021/04/23 04:35:03;;;;;;;10.30;5.03;;;8.20;54.80;;;;;;5057335;28;20208;-85
2021/04/23 04:37:29;;;;;;;10.53;5.90;;;8.30;54.50;;;;;;5046928;28;20177;-84
2021/04/23 04:39:55;;;;;;;8.23;4.80;;;8.40;54.10;;;;;;5059166;28;20184;-85
2021/04/23 04:42:21;;;;;;;8.10;5.03;;;8.50;53.80;;;;;;5068657;28;20180;-85
2021/04/23 04:44:47;;;;;;;9.00;5.00;;;8.40;53.10;;;;;;5067915;28;20184;-85
2021/04/23 04:47:12;;;;;;;10.00;5.97;;;8.30;53.90;;;;;;5068583;28;20239;-83
2021/04/23 04:49:38;;;;;;;8.70;6.20;;;8.10;54.10;;;;;;5049378;28;20209;-83
2021/04/23 04:52:04;;;;;;;9.17;5.40;;;8.00;54.60;;;;;;5070095;28;20184;-84
2021/04/23 04:54:30;;;;;;;9.07;5.63;;;7.70;55.20;;;;;;5071790;28;20244;-84
2021/04/23 04:56:55;;;;;;;11.07;5.30;;;7.60;55.00;;;;;;5069202;28;20184;-85
2021/04/23 04:59:21;;;;;;;6.70;5.70;;;7.40;55.90;;;;;;5066759;28;20188;-84
2021/04/23 05:01:47;;;;;;;8.13;5.20;;;7.10;56.60;;;;;;5056739;28;20189;-84
2021/04/23 05:04:13;;;;;;;6.50;4.83;;;7.00;57.50;;;;;;5047608;28;20216;-85
2021/04/23 05:06:39;;;;;;;7.40;5.80;;;6.90;57.90;;;;;;5053427;28;20211;-81
2021/04/23 05:09:05;;;;;;;10.43;5.60;;;7.00;58.10;;;;;;5047064;28;20185;-84
2021/04/23 05:11:31;;;;;;;12.27;7.03;;;6.80;58.00;;;;;;5051264;28;20232;-83
2021/04/23 05:13:58;;;;;;;7.63;5.53;;;6.80;58.40;;;;;;5062210;28;20184;-84
2021/04/23 05:16:24;;;;;;;8.70;4.90;;;6.80;58.50;;;;;;5064292;28;20212;-84
2021/04/23 05:18:50;;;;;;;12.53;5.30;;;7.10;57.60;;;;;;5065158;28;20195;-85
2021/04/23 05:21:16;;;;;;;10.97;5.20;;;7.00;57.60;;;;;;5066625;28;20176;-85
2021/04/23 05:23:42;;;;;;;7.57;4.90;;;6.90;58.10;;;;;;5064510;28;20184;-84
2021/04/23 05:26:07;;;;;;;11.10;8.27;;;7.00;57.90;;;;;;5066242;28;20585;-84
2021/04/23 05:28:34;;;;;;;11.57;5.83;;;7.00;57.90;;;;;;5064030;28;20196;-84
2021/04/23 05:30:59;;;;;;;6.73;4.63;;;7.00;58.20;;;;;;5060084;28;20216;-85
2021/04/23 05:33:26;;;;;;;7.03;5.03;;;7.10;58.20;;;;;;5066760;28;20382;-84
2021/04/23 05:35:51;;;;;;;9.00;5.73;;;7.10;57.50;;;;;;5066123;28;20188;-85
2021/04/23 05:38:17;;;;;;;10.93;5.20;;;7.10;57.70;;;;;;5067170;28;20244;-84
2021/04/23 05:40:46;;;;;;;12.70;5.67;;;7.00;57.90;;;;;;5064790;28;20180;-84
2021/04/23 05:43:14;;;;;;;9.73;4.80;;;7.10;57.60;;;;;;5066426;28;20176;-85
2021/04/23 05:45:41;;;;;;;7.70;5.10;;;7.10;57.80;;;;;;5065078;28;20192;-83
2021/04/23 05:48:08;;;;;;;9.70;5.53;;;7.20;57.90;;;;;;5066111;28;20238;-84
2021/04/23 05:50:35;;;;;;;8.77;5.07;;;7.30;57.70;;;;;;5065415;28;20679;-85
2021/04/23 05:53:01;;;;;;;9.33;5.07;;;7.50;57.20;;;;;;5070583;28;20172;-84
2021/04/23 05:55:27;;;;;;;7.20;5.37;;;7.60;57.10;;;;;;5057446;28;20204;-85
2021/04/23 05:57:59;;;;;;;9.13;5.90;;;7.80;56.70;;;;;;5053016;28;20185;-85
2021/04/23 06:00:27;;;;;;;12.23;7.00;;;8.00;56.10;;;;;;5065797;28;20275;-87
2021/04/23 06:02:54;;;;;;;9.60;5.23;;;8.20;55.50;;;;;;5059520;28;20198;-85
2021/04/23 06:05:26;;;;;;;10.47;5.43;;;8.10;55.10;;;;;;5068334;28;20303;-85
2021/04/23 06:07:52;;;;;;;7.93;5.57;;;8.10;55.30;;;;;;5059808;28;20179;-84
2021/04/23 06:10:18;;;;;;;15.97;5.53;;;8.20;55.80;;;;;;5077692;28;20721;-85
2021/04/23 06:12:44;;;;;;;13.97;6.37;;;8.20;55.30;;;;;;5065884;28;20244;-85
2021/04/23 06:15:12;;;;;;;12.17;5.80;;;8.40;55.60;;;;;;5065059;28;20198;-85
2021/04/23 06:17:38;;;;;;;10.23;7.50;;;8.30;55.30;;;;;;5064561;28;20177;-85
2021/04/23 06:20:10;;;;;;;12.43;7.27;;;8.40;55.40;;;;;;5063362;28;20168;-84
2021/04/23 06:22:35;;;;;;;8.70;6.20;;;8.40;55.70;;;;;;5059810;28;20224;-83
2021/04/23 06:25:02;;;;;;;10.33;6.50;;;8.50;55.90;;;;;;5061430;28;20223;-84
2021/04/23 06:27:28;;;;;;;13.93;5.60;;;8.70;55.00;;;;;;5057806;28;20657;-84
2021/04/23 06:29:53;;;;;;;13.00;6.87;;;8.50;55.00;;;;;;5060082;28;20235;-84
2021/04/23 06:32:19;;;;;;;10.60;5.67;;;8.50;55.30;;;;;;5060119;28;20210;-85
2021/04/23 06:34:45;;;;;;;10.87;5.80;;;8.50;55.80;;;;;;5064546;28;20258;-85
2021/04/23 06:37:11;;;;;;;10.77;5.23;;;8.60;54.80;;;;;;5060146;28;20184;-86
2021/04/23 06:39:37;;;;;;;12.37;6.20;;;8.50;54.80;;;;;;5045897;28;20223;-86
2021/04/23 06:42:02;;;;;;;10.60;5.90;;;8.60;54.60;;;;;;5061667;28;20368;-86
2021/04/23 06:44:28;;;;;;;10.70;5.67;;;8.60;54.30;;;;;;5064555;28;20197;-83
2021/04/23 06:46:54;;;;;;;9.87;5.30;;;8.70;54.40;;;;;;5064628;28;20195;-82
2021/04/23 06:49:20;;;;;;;9.07;5.60;;;8.70;54.00;;;;;;5062941;28;20195;-84
2021/04/23 06:51:46;;;;;;;8.40;5.10;;;8.80;53.90;;;;;;5050732;28;20252;-86
2021/04/23 06:54:12;;;;;;;7.73;5.27;;;8.90;53.60;;;;;;5052173;28;20196;-85
2021/04/23 06:56:38;;;;;;;9.40;6.10;;;8.90;54.00;;;;;;5063667;28;20618;-85
2021/04/23 06:59:04;;;;;;;9.67;5.43;;;9.10;53.70;;;;;;5062118;28;20271;-86
2021/04/23 07:01:30;;;;;;;8.13;5.97;;;9.20;53.40;;;;;;5057570;28;20189;-86
2021/04/23 07:03:56;;;;;;;12.50;5.73;;;9.30;52.90;;;;;;5062631;28;20195;-86
2021/04/23 07:06:21;;;;;;;8.40;6.03;;;9.40;52.70;;;;;;5061175;28;20226;-86
2021/04/23 07:08:47;;;;;;;7.77;4.93;;;9.50;52.80;;;;;;5059051;28;20187;-87
2021/04/23 07:11:13;;;;;;;11.13;5.93;;;9.60;51.90;;;;;;5062398;28;20558;-87
2021/04/23 07:13:39;;;;;;;8.97;5.73;;;9.80;50.90;;;;;;5063788;28;20183;-88
2021/04/23 07:16:04;;;;;;;10.40;5.40;;;9.80;50.90;;;;;;5061170;28;20195;-87
2021/04/23 07:18:30;;;;;;;7.43;5.30;;;9.80;50.00;;;;;;5062328;28;20176;-85
2021/04/23 07:20:56;;;;;;;15.23;5.33;;;9.70;50.60;;;;;;5063587;28;20188;-87
2021/04/23 07:23:22;;;;;;;6.40;4.97;;;9.80;50.30;;;;;;5047606;28;20188;-85
2021/04/23 07:25:48;;;;;;;6.07;4.90;;;9.80;50.10;;;;;;5061586;28;20292;-85
2021/04/23 07:28:14;;;;;;;9.57;5.20;;;9.80;50.20;;;;;;5062907;28;20188;-86
2021/04/23 07:30:42;;;;;;;9.63;5.27;;;10.00;50.20;;;;;;5050731;28;20276;-86
2021/04/23 07:33:12;;;;;;;10.60;5.00;;;10.10;49.20;;;;;;5046917;28;20169;-86
2021/04/23 07:35:39;;;;;;;11.07;5.73;;;10.30;49.20;;;;;;5038269;28;20200;-86
2021/04/23 07:38:05;;;;;;;12.07;6.20;;;10.40;49.50;;;;;;5055275;28;20183;-86
2021/04/23 07:40:32;;;;;;;7.37;5.07;;;10.40;48.40;;;;;;5043855;28;20189;-87
2021/04/23 07:43:00;;;;;;;8.97;5.37;;;10.70;48.40;;;;;;5044912;28;20226;-86
2021/04/23 07:45:26;;;;;;;13.67;5.87;;;10.80;47.20;;;;;;5060181;28;20231;-87
2021/04/23 07:47:52;;;;;;;12.03;5.80;;;10.90;47.40;;;;;;5061118;28;20644;-87
2021/04/23 07:50:20;;;;;;;11.23;5.63;;;11.10;47.20;;;;;;5062279;28;20227;-86
2021/04/23 07:52:46;;;;;;;13.20;6.70;;;11.10;46.40;;;;;;5056122;28;20239;-87
2021/04/23 07:55:13;;;;;;;11.50;6.23;;;11.20;46.30;;;;;;5053999;28;20205;-86
2021/04/23 07:57:42;;;;;;;10.63;5.53;;;11.30;45.70;;;;;;5054748;28;20188;-86
2021/04/23 08:00:11;;;;;;;10.20;5.90;;;11.10;46.30;;;;;;5052876;28;20195;-87
2021/04/23 08:02:37;;;;;;;11.57;5.63;;;11.10;46.60;;;;;;5056817;28;20239;-87
2021/04/23 08:05:04;;;;;;;10.53;5.57;;;11.30;47.30;;;;;;5059763;28;20204;-87
2021/04/23 08:07:29;;;;;;;10.97;6.03;;;11.40;45.40;;;;;;5056152;28;20586;-87
2021/04/23 08:09:55;;;;;;;12.80;6.63;;;11.40;44.80;;;;;;5052413;28;20219;-85
2021/04/23 08:12:21;;;;;;;12.67;6.03;;;11.50;45.60;;;;;;5064397;28;20191;-85
2021/04/23 08:14:47;;;;;;;10.50;6.47;;;11.60;44.60;;;;;;5066838;28;20184;-85
2021/04/23 08:17:12;;;;;;;8.93;5.43;;;11.70;44.60;;;;;;5060414;28;20184;-85
2021/04/23 08:19:38;;;;;;;13.67;6.90;;;11.80;44.20;;;;;;5065957;28;20185;-85
2021/04/23 08:22:04;;;;;;;9.73;6.00;;;12.10;44.20;;;;;;5064514;28;20191;-85
2021/04/23 08:24:31;;;;;;;10.83;6.37;;;12.20;43.30;;;;;;5065271;28;20248;-87
2021/04/23 08:26:57;;;;;;;19.33;6.90;;;12.20;44.00;;;;;;5063772;28;20185;-88
2021/04/23 08:29:22;;;;;;;18.60;7.50;;;12.30;43.20;;;;;;5065748;28;20259;-87
2021/04/23 08:31:48;;;;;;;12.07;6.97;;;12.40;42.40;;;;;;5062280;28;20200;-88
2021/04/23 08:34:14;;;;;;;12.83;5.97;;;12.60;43.30;;;;;;5062803;28;20181;-87
2021/04/23 08:36:40;;;;;;;12.67;6.50;;;12.70;42.60;;;;;;5063128;28;20201;-87
2021/04/23 08:39:08;;;;;;;16.20;6.67;;;12.90;41.60;;;;;;5061127;28;20170;-87
2021/04/23 08:41:35;;;;;;;12.37;6.90;;;13.10;40.50;;;;;;5063183;28;20192;-86
2021/04/23 08:44:02;;;;;;;11.83;7.33;;;13.10;41.40;;;;;;5061266;28;20197;-86
2021/04/23 08:46:28;;;;;;;8.93;6.50;;;13.20;39.90;;;;;;5063057;28;20199;-87
2021/04/23 08:48:55;;;;;;;10.70;6.47;;;13.30;39.80;;;;;;5063804;28;20193;-87
2021/04/23 08:51:22;;;;;;;13.87;6.67;;;13.30;40.90;;;;;;5062746;28;20211;-87
2021/04/23 08:53:52;;;;;;;11.33;7.03;;;13.50;40.20;;;;;;5064835;28;20509;-87
2021/04/23 08:56:18;;;;;;;11.80;6.80;;;13.80;39.40;;;;;;5062420;28;20200;-88
2021/04/23 08:58:45;;;;;;;10.47;6.20;;;13.70;39.20;;;;;;5064637;28;20259;-88
2021/04/23 09:01:10;;;;;;;12.07;6.67;;;13.90;38.60;;;;;;5063379;28;20176;-88
2021/04/23 09:03:36;;;;;;;11.10;7.10;;;14.20;38.50;;;;;;5058827;28;20195;-86
2021/04/23 09:06:20;;;;;;;10.23;6.50;;;14.30;38.20;;;;;;5064304;28;20199;-87
2021/04/23 09:09:10;;;;;;;9.40;6.37;;;14.50;38.10;;;;;;5061117;28;20187;-87
2021/04/23 09:11:41;;;;;;;12.97;7.20;;;14.50;37.80;;;;;;5062205;28;20227;-89
2021/04/23 09:14:19;;;;;;;12.70;7.93;;;14.50;38.00;;;;;;5060798;28;20184;-88
2021/04/23 09:16:45;;;;;;;11.77;7.57;;;14.60;37.10;;;;;;5064520;28;20294;-87
2021/04/23 09:19:30;;;;;;;9.80;7.20;;;14.40;37.20;;;;;;5065742;28;20222;-86
2021/04/23 09:22:02;;;;;;;14.33;7.23;;;14.50;37.30;;;;;;5065292;28;20199;-86
2021/04/23 09:24:37;;;;;;;14.17;7.63;;;14.80;37.10;;;;;;5064445;28;20184;-86
2021/04/23 09:27:14;;;;;;;11.40;7.60;;;15.00;36.50;;;;;;5064754;28;20195;-88
2021/04/23 09:29:47;;;;;;;14.67;7.30;;;15.10;36.40;;;;;;5064283;28;20207;-89
2021/04/23 09:32:28;;;;;;;10.97;7.47;;;15.00;36.60;;;;;;5055505;28;20173;-90
2021/04/23 09:34:58;;;;;;;12.77;8.43;;;14.80;36.40;;;;;;5059765;28;20211;-89
2021/04/23 09:37:28;;;;;;;11.77;7.60;;;14.80;36.20;;;;;;5058943;28;20176;-88
2021/04/23 09:40:11;;;;;;;15.97;7.87;;;15.00;36.00;;;;;;5064618;28;20184;-87
2021/04/23 09:42:56;;;;;;;10.90;6.93;;;15.10;35.60;;;;;;5058058;28;20202;-86
2021/04/23 09:45:24;;;;;;;14.57;7.63;;;15.40;35.20;;;;;;5073261;28;20306;-87
2021/04/23 09:47:51;;;;;;;17.73;7.77;;;15.50;34.70;;;;;;5073252;28;20230;-88
2021/04/23 09:50:18;;;;;;;13.10;7.70;;;15.20;35.40;;;;;;5064072;28;20240;-87
2021/04/23 09:52:52;;;;;;;10.03;7.67;;;15.50;34.70;;;;;;5056476;28;20176;-86
2021/04/23 09:55:37;;;;;;;20.47;8.50;;;15.40;35.00;;;;;;5060824;28;20203;-87
2021/04/23 09:58:05;;;;;;;12.17;8.27;;;15.40;35.50;;;;;;5056703;28;20238;-88
2021/04/23 10:00:33;;;;;;;11.90;8.07;;;15.50;35.20;;;;;;5060870;28;20191;-88
2021/04/23 10:03:01;;;;;;;11.43;8.10;;;15.70;34.70;;;;;;5061943;28;20181;-88
2021/04/23 10:05:32;;;;;;;11.87;8.60;;;15.80;35.20;;;;;;5062246;28;20204;-88
2021/04/23 10:07:58;;;;;;;10.97;8.10;;;15.60;34.90;;;;;;5059154;28;20768;-88
2021/04/23 10:10:24;;;;;;;11.57;7.90;;;16.00;35.00;;;;;;5061872;28;20231;-87
2021/04/23 10:12:53;;;;;;;12.37;7.90;;;16.30;34.20;;;;;;5062578;28;20794;-87
2021/04/23 10:15:24;;;;;;;10.13;7.40;;;16.40;33.50;;;;;;5062419;28;20314;-88
2021/04/23 10:17:55;;;;;;;15.47;7.47;;;16.60;33.20;;;;;;5061758;28;20186;-88
2021/04/23 10:20:27;;;;;;;10.37;7.27;;;16.70;33.30;;;;;;5060919;28;20217;-87
2021/04/23 10:22:55;;;;;;;12.27;7.80;;;16.60;33.50;;;;;;5061868;28;20190;-87
2021/04/23 10:25:21;;;;;;;11.77;7.83;;;16.70;33.00;;;;;;5061288;28;20299;-88
2021/04/23 10:27:49;;;;;;;9.97;7.13;;;17.00;32.00;;;;;;5059332;28;21092;-87
2021/04/23 10:30:19;;;;;;;11.60;7.47;;;17.10;32.50;;;;;;5060791;28;20219;-87
2021/04/23 10:32:49;;;;;;;11.73;7.67;;;17.40;31.60;;;;;;5062002;28;20179;-88
2021/04/23 10:35:16;;;;;;;13.03;7.40;;;17.50;32.30;;;;;;5061978;28;20207;-88
2021/04/23 10:37:45;;;;;;;11.17;7.90;;;17.90;31.40;;;;;;5057876;28;20250;-88
2021/04/23 10:40:14;;;;;;;16.37;8.03;;;18.30;30.80;;;;;;5060909;28;20215;-88
2021/04/23 10:42:51;;;;;;;11.67;7.63;;;18.20;29.80;;;;;;5061847;28;20184;-88
2021/04/23 10:45:21;;;;;;;9.80;7.47;;;18.20;30.10;;;;;;5061651;28;20262;-88
2021/04/23 10:47:52;;;;;;;9.83;7.27;;;18.50;30.00;;;;;;5060228;28;20189;-88
2021/04/23 10:50:21;;;;;;;10.47;7.23;;;18.80;29.30;;;;;;5060464;28;20212;-88
2021/04/23 10:53:00;;;;;;;9.37;7.03;;;19.00;28.90;;;;;;5056045;28;20582;-88
2021/04/23 10:55:58;;;;;;;8.63;7.45;;;19.20;29.10;;;;;;5057230;28;20232;-88
2021/04/23 10:58:29;;;;;;;10.13;7.13;;;19.30;29.10;;;;;;5040776;28;20222;-88
2021/04/23 11:01:25;;;;;;;11.05;7.00;;;19.40;28.40;;;;;;5057919;28;20190;-88
2021/04/23 11:04:04;;;;;;;12.23;7.93;;;19.60;29.50;;;;;;5048185;28;20265;-88
2021/04/23 11:06:42;;;;;;;12.02;8.23;;;20.00;28.80;;;;;;5057795;28;20221;-88
2021/04/23 11:09:09;;;;;;;10.68;7.47;;;19.60;29.20;;;;;;5072606;28;20230;-86
2021/04/23 11:11:40;;;;;;;9.13;7.57;;;19.70;29.00;;;;;;5076132;28;20218;-88
2021/04/23 11:14:24;;;;;;;12.03;8.30;;;19.70;28.60;;;;;;5067557;28;20202;-88
2021/04/23 11:16:53;;;;;;;19.38;8.90;;;19.50;28.70;;;;;;5059948;28;20273;-88
2021/04/23 11:19:19;;;;;;;11.13;8.13;;;19.70;29.40;;;;;;5063300;28;21128;-88
2021/04/23 11:22:02;;;;;;;8.70;7.47;;;19.90;28.30;;;;;;5060319;28;20214;-88
2021/04/23 11:24:27;;;;;;;9.17;7.87;;;19.80;28.00;;;;;;5063228;28;20189;-88
2021/04/23 11:26:57;;;;;;;12.90;7.93;;;19.50;28.00;;;;;;5057714;28;20276;-88
2021/04/23 11:29:25;;;;;;;10.77;8.05;;;20.00;28.20;;;;;;5062719;28;20196;-86
2021/04/23 11:32:19;;;;;;;13.98;7.68;;;20.30;27.70;;;;;;5063472;28;20191;-87
2021/04/23 11:34:59;;;;;;;11.25;7.22;;;20.50;28.40;;;;;;5062222;28;20239;-86
2021/04/23 11:37:29;;;;;;;11.13;7.07;;;20.90;27.60;;;;;;5061824;28;20243;-88
2021/04/23 11:40:14;;;;;;;7.93;7.07;;;20.80;25.80;;;;;;5062713;28;20187;-87
2021/04/23 11:42:45;;;;;;;10.00;6.47;;;20.50;26.40;;;;;;5059440;28;20274;-87
2021/04/23 11:45:12;;;;;;;12.90;8.30;;;20.80;25.70;;;;;;5061785;28;20236;-86
2021/04/23 11:47:44;;;;;;;11.63;7.43;;;20.10;26.20;;;;;;5058922;28;20214;-86
2021/04/23 11:50:26;;;;;;;20.70;9.73;;;20.40;27.10;;;;;;5060111;28;20209;-87
2021/04/23 11:53:03;;;;;;;10.40;8.50;;;20.30;27.40;;;;;;5060591;28;20242;-87
2021/04/23 11:55:41;;;;;;;10.77;7.60;;;20.70;27.40;;;;;;5057555;28;20223;-88
2021/04/23 11:58:12;;;;;;;10.82;7.55;;;21.10;28.00;;;;;;5059280;28;20201;-89
2021/04/23 12:00:41;;;;;;;10.57;8.00;;;21.70;27.40;;;;;;5060503;28;20237;-88
2021/04/23 12:03:09;;;;;;;11.80;7.85;;;21.40;26.50;;;;;;5058796;28;20189;-86
2021/04/23 12:05:46;;;;;;;10.43;7.78;;;21.10;27.10;;;;;;5058744;28;20760;-90
2021/04/23 12:08:11;;;;;;;11.00;8.05;;;21.40;26.90;;;;;;5054474;28;20194;-90
2021/04/23 12:10:45;;;;;;;10.75;7.28;;;21.80;27.00;;;;;;5060769;28;20244;-90
2021/04/23 12:13:14;;;;;;;8.48;7.57;;;21.80;25.80;;;;;;5053742;28;20187;-90
2021/04/23 12:15:42;;;;;;;6.70;6.07;;;21.70;25.70;;;;;;5061419;28;20296;-90
2021/04/23 12:18:09;;;;;;;13.07;7.88;;;21.60;25.70;;;;;;5053126;28;20177;-90
2021/04/23 12:20:41;;;;;;;10.50;7.25;;;21.10;26.00;;;;;;5061141;28;20859;-89
2021/04/23 12:23:12;;;;;;;13.55;7.20;;;20.90;26.20;;;;;;5057726;28;20214;-90
2021/04/23 12:25:51;;;;;;;8.88;7.78;;;21.40;26.50;;;;;;5054585;28;20212;-90
2021/04/23 12:28:37;;;;;;;11.52;8.15;;;22.00;25.90;;;;;;5057762;28;20187;-90
2021/04/23 12:31:02;;;;;;;10.43;7.60;;;21.60;25.70;;;;;;5065540;28;20693;-89
2021/04/23 12:33:50;;;;;;;11.18;8.38;;;21.70;25.70;;;;;;5062777;28;20202;-90
2021/04/23 12:36:27;;;;;;;10.77;7.70;;;21.60;25.90;;;;;;5059937;28;20199;-90
2021/04/23 12:38:59;;;;;;;10.88;8.20;;;21.30;25.70;;;;;;5064990;28;20185;-90
2021/04/23 12:41:31;;;;;;;9.43;7.38;;;20.80;25.70;;;;;;5061193;28;20618;-90
2021/04/23 12:44:00;;;;;;;10.15;7.63;;;21.70;25.20;;;;;;5044090;28;20234;-90
2021/04/23 12:46:32;;;;;;;8.95;7.90;;;22.20;24.90;;;;;;5064543;28;20239;-90
2021/04/23 12:49:15;;;;;;;11.55;7.93;;;22.00;24.90;;;;;;5065762;28;20196;-90
2021/04/23 12:52:10;;;;;;;11.23;7.40;;;22.10;25.20;;;;;;5058893;28;20208;-86
2021/04/23 12:54:38;;;;;;;11.30;7.68;;;21.90;24.70;;;;;;5051303;28;20193;-90